Time;durP1;ratioP1;P1;durP2;ratioP2;P2;SDS_P1;SDS_P2;PMS_P1;PMS_P2;Temp;Humidity;BMP_temperature;BMP_pressure;BME280_temperature;BME280_humidity;BME280_pressure;Samples;Min_cycle;Max_cycle;Signal;HPM_P1;HPM_P2
2022/08/14 00:01:02;;;;;;;27.07;19.33;;;;;;;;;;755043;184;625665;-60
2022/08/14 00:03:28;;;;;;;28.03;22.27;;;;;;;;;;752955;186;624581;-60
2022/08/14 00:05:54;;;;;;;29.00;20.90;;;;;;;;;;755431;186;628584;-60
2022/08/14 00:08:20;;;;;;;28.73;20.00;;;;;;;;;;756893;183;624438;-60
2022/08/14 00:10:46;;;;;;;28.13;20.33;;;;;;;;;;756936;185;617200;-59
2022/08/14 00:13:12;;;;;;;26.67;20.90;;;;;;;;;;761805;183;638808;-59
2022/08/14 00:15:37;;;;;;;22.70;18.80;;;;;;;;;;753978;183;622924;-61
2022/08/14 00:18:03;;;;;;;23.70;18.57;;;;;;;;;;753445;183;624905;-60
2022/08/14 00:20:29;;;;;;;22.73;19.20;;;;;;;;;;765068;183;617827;-58
2022/08/14 00:22:55;;;;;;;25.17;20.90;;;;;;;;;;754086;184;618654;-59
2022/08/14 00:25:21;;;;;;;30.13;20.37;;;;;;;;;;760599;183;626467;-58
2022/08/14 00:27:47;;;;;;;22.37;19.17;;;;;;;;;;755146;184;627665;-59
2022/08/14 00:30:13;;;;;;;24.30;18.97;;;;;;;;;;760352;185;637639;-59
2022/08/14 00:32:38;;;;;;;22.73;19.47;;;;;;;;;;758662;183;620031;-59
2022/08/14 00:35:05;;;;;;;25.70;18.90;;;;;;;;;;758879;185;634710;-60
2022/08/14 00:37:30;;;;;;;26.07;19.00;;;;;;;;;;761062;185;629496;-59
2022/08/14 00:39:56;;;;;;;24.53;20.00;;;;;;;;;;755758;185;642752;-61
2022/08/14 00:42:22;;;;;;;22.20;19.37;;;;;;;;;;755453;183;618062;-61
2022/08/14 00:44:48;;;;;;;24.07;20.10;;;;;;;;;;768202;183;618662;-58
2022/08/14 00:47:14;;;;;;;27.20;21.33;;;;;;;;;;754283;184;617110;-58
2022/08/14 00:49:40;;;;;;;25.40;20.73;;;;;;;;;;756992;183;633450;-58
2022/08/14 00:52:05;;;;;;;25.57;20.80;;;;;;;;;;758266;183;635051;-61
2022/08/14 00:54:31;;;;;;;27.53;21.60;;;;;;;;;;760264;182;629080;-60
2022/08/14 00:56:57;;;;;;;27.47;21.87;;;;;;;;;;760864;183;637877;-61
2022/08/14 00:59:23;;;;;;;27.70;22.00;;;;;;;;;;753372;186;638146;-58
2022/08/14 01:01:49;;;;;;;31.10;24.10;;;;;;;;;;768841;183;620206;-59
2022/08/14 01:04:16;;;;;;;29.17;23.80;;;;;;;;;;760853;183;624724;-60
2022/08/14 01:06:42;;;;;;;27.80;23.13;;;;;;;;;;756801;186;626788;-57
2022/08/14 01:09:08;;;;;;;29.90;23.90;;;;;;;;;;759537;185;618681;-59
2022/08/14 01:11:34;;;;;;;32.13;23.43;;;;;;;;;;755128;184;617519;-58
2022/08/14 01:14:00;;;;;;;29.00;23.97;;;;;;;;;;755010;185;633627;-60
2022/08/14 01:16:25;;;;;;;27.20;22.90;;;;;;;;;;758689;183;626729;-59
2022/08/14 01:21:23;;;;;;;30.97;23.73;;;;;;;;;;758595;184;635215;-60
2022/08/14 01:23:49;;;;;;;29.73;24.03;;;;;;;;;;759648;184;619003;-58
2022/08/14 01:26:15;;;;;;;27.97;21.97;;;;;;;;;;757873;184;616462;-58
2022/08/14 01:28:41;;;;;;;27.63;23.27;;;;;;;;;;759085;184;624904;-60
2022/08/14 01:31:07;;;;;;;25.87;22.40;;;;;;;;;;755303;186;630276;-57
2022/08/14 01:33:32;;;;;;;27.40;21.80;;;;;;;;;;756839;183;619042;-59
2022/08/14 01:35:59;;;;;;;27.93;22.00;;;;;;;;;;761242;182;614894;-61
2022/08/14 01:38:25;;;;;;;24.00;21.10;;;;;;;;;;760589;183;636325;-58
2022/08/14 01:40:50;;;;;;;26.63;21.90;;;;;;;;;;755609;183;656137;-60
2022/08/14 01:43:16;;;;;;;26.03;21.37;;;;;;;;;;762283;185;625232;-60
2022/08/14 01:45:42;;;;;;;26.13;21.33;;;;;;;;;;758610;183;626998;-59
2022/08/14 01:48:08;;;;;;;24.60;20.10;;;;;;;;;;760430;183;621495;-59
2022/08/14 01:50:33;;;;;;;25.87;21.37;;;;;;;;;;767133;182;629264;-58
2022/08/14 01:52:59;;;;;;;23.20;19.83;;;;;;;;;;758569;183;628996;-59
2022/08/14 01:55:29;;;;;;;27.60;20.40;;;;;;;;;;754942;184;630013;-59
2022/08/14 01:57:51;;;;;;;24.50;19.90;;;;;;;;;;762560;183;629962;-60
2022/08/14 02:00:17;;;;;;;23.53;20.73;;;;;;;;;;766828;183;619081;-61
2022/08/14 02:02:43;;;;;;;30.63;23.37;;;;;;;;;;756195;183;636901;-59
2022/08/14 02:05:08;;;;;;;23.70;19.83;;;;;;;;;;757277;183;625910;-58
2022/08/14 02:07:35;;;;;;;21.83;18.47;;;;;;;;;;761834;185;615950;-58
2022/08/14 02:10:00;;;;;;;27.13;20.10;;;;;;;;;;756794;183;629867;-58
2022/08/14 02:12:26;;;;;;;23.43;20.00;;;;;;;;;;754280;185;628918;-61
2022/08/14 02:14:52;;;;;;;25.30;19.13;;;;;;;;;;759957;185;622391;-61
2022/08/14 02:17:21;;;;;;;22.30;19.90;;;;;;;;;;757224;183;636536;-61
2022/08/14 02:19:43;;;;;;;23.03;18.60;;;;;;;;;;754349;185;621145;-58
2022/08/14 02:22:09;;;;;;;25.03;18.80;;;;;;;;;;759891;183;621649;-58
2022/08/14 02:24:36;;;;;;;27.03;19.20;;;;;;;;;;754897;183;632183;-61
2022/08/14 02:27:01;;;;;;;26.43;18.70;;;;;;;;;;753668;183;628744;-58
2022/08/14 02:29:27;;;;;;;25.90;18.20;;;;;;;;;;756694;183;628040;-60
2022/08/14 02:31:53;;;;;;;22.70;18.73;;;;;;;;;;762528;183;627239;-58
2022/08/14 02:34:19;;;;;;;21.27;17.70;;;;;;;;;;756143;186;625359;-60
2022/08/14 02:36:44;;;;;;;23.93;17.57;;;;;;;;;;756991;183;625013;-58
2022/08/14 02:39:10;;;;;;;25.03;17.90;;;;;;;;;;762041;183;617581;-58
2022/08/14 02:41:36;;;;;;;19.17;16.60;;;;;;;;;;754911;184;627341;-58
2022/08/14 02:44:03;;;;;;;23.80;19.27;;;;;;;;;;755848;185;623417;-58
2022/08/14 02:46:29;;;;;;;25.67;17.60;;;;;;;;;;760486;183;622871;-58
2022/08/14 02:48:55;;;;;;;22.80;18.17;;;;;;;;;;769628;178;623633;-61
2022/08/14 02:51:21;;;;;;;27.10;17.67;;;;;;;;;;759309;185;623612;-59
2022/08/14 02:53:47;;;;;;;22.30;17.47;;;;;;;;;;757762;183;619539;-58
2022/08/14 02:56:14;;;;;;;20.83;17.10;;;;;;;;;;760490;183;627345;-61
2022/08/14 02:58:39;;;;;;;22.10;18.77;;;;;;;;;;757322;183;630892;-58
2022/08/14 03:01:07;;;;;;;23.40;18.53;;;;;;;;;;755810;184;624978;-58
2022/08/14 03:03:32;;;;;;;25.10;20.63;;;;;;;;;;760760;183;617692;-58
2022/08/14 03:05:58;;;;;;;26.20;19.07;;;;;;;;;;754958;183;623879;-58
2022/08/14 03:08:26;;;;;;;23.67;19.43;;;;;;;;;;756356;183;615852;-60
2022/08/14 03:10:49;;;;;;;28.90;20.80;;;;;;;;;;761472;183;620712;-58
2022/08/14 03:13:15;;;;;;;24.13;20.93;;;;;;;;;;765226;183;630182;-60
2022/08/14 03:15:45;;;;;;;23.77;20.00;;;;;;;;;;756653;185;635569;-60
2022/08/14 03:18:09;;;;;;;24.17;19.87;;;;;;;;;;751323;186;625900;-58
2022/08/14 03:20:35;;;;;;;23.00;19.13;;;;;;;;;;757022;183;630451;-58
2022/08/14 03:23:00;;;;;;;24.13;19.10;;;;;;;;;;757115;183;632877;-58
2022/08/14 03:25:29;;;;;;;29.00;21.30;;;;;;;;;;756706;183;624717;-61
2022/08/14 03:27:52;;;;;;;27.03;21.70;;;;;;;;;;759522;185;628835;-58
2022/08/14 03:30:18;;;;;;;28.60;21.47;;;;;;;;;;756292;185;619101;-59
2022/08/14 03:32:44;;;;;;;24.83;21.10;;;;;;;;;;755959;185;634772;-61
2022/08/14 03:35:10;;;;;;;24.60;21.37;;;;;;;;;;761228;185;651455;-60
2022/08/14 03:37:36;;;;;;;29.50;21.60;;;;;;;;;;757518;185;627869;-58
2022/08/14 03:40:01;;;;;;;28.00;22.23;;;;;;;;;;755799;185;641404;-59
2022/08/14 03:42:27;;;;;;;30.47;23.30;;;;;;;;;;754346;185;618766;-58
2022/08/14 03:44:53;;;;;;;27.93;24.20;;;;;;;;;;759697;183;617308;-58
2022/08/14 03:47:19;;;;;;;27.87;23.17;;;;;;;;;;756815;183;619909;-60
2022/08/14 03:49:46;;;;;;;29.50;23.57;;;;;;;;;;757639;183;628518;-59
2022/08/14 03:52:12;;;;;;;31.40;25.87;;;;;;;;;;762546;183;616276;-61
2022/08/14 03:54:37;;;;;;;34.40;24.70;;;;;;;;;;755834;185;621208;-61
2022/08/14 03:57:02;;;;;;;34.33;28.63;;;;;;;;;;756533;185;618930;-58
2022/08/14 03:59:28;;;;;;;35.63;27.30;;;;;;;;;;758886;184;626213;-61
2022/08/14 04:01:54;;;;;;;35.77;28.70;;;;;;;;;;754968;186;626116;-61
2022/08/14 04:04:20;;;;;;;33.07;27.27;;;;;;;;;;759163;183;627187;-58
2022/08/14 04:06:46;;;;;;;37.13;27.33;;;;;;;;;;755385;183;631231;-61
2022/08/14 04:09:12;;;;;;;41.37;27.67;;;;;;;;;;754418;182;624944;-58
2022/08/14 04:11:37;;;;;;;33.80;27.27;;;;;;;;;;754283;185;627000;-58
2022/08/14 04:14:04;;;;;;;37.90;30.00;;;;;;;;;;754959;186;637645;-61
2022/08/14 04:16:29;;;;;;;31.83;25.87;;;;;;;;;;760056;184;624466;-61
2022/08/14 04:18:55;;;;;;;35.57;29.17;;;;;;;;;;766126;183;627570;-60
2022/08/14 04:21:23;;;;;;;40.47;30.07;;;;;;;;;;757867;183;626601;-62
2022/08/14 04:23:48;;;;;;;35.37;26.50;;;;;;;;;;760521;183;629202;-58
2022/08/14 04:26:14;;;;;;;42.00;29.53;;;;;;;;;;748395;186;617540;-58
2022/08/14 04:28:39;;;;;;;40.67;30.27;;;;;;;;;;756044;184;632973;-60
2022/08/14 04:31:05;;;;;;;39.73;29.33;;;;;;;;;;753999;184;626984;-61
2022/08/14 04:33:31;;;;;;;42.67;32.07;;;;;;;;;;752132;184;626858;-61
2022/08/14 04:35:57;;;;;;;36.73;31.03;;;;;;;;;;763766;183;624917;-61
2022/08/14 04:45:58;;;;;;;41.20;31.30;;;;;;;;;;753517;182;616475;-61
2022/08/14 04:48:24;;;;;;;41.93;30.47;;;;;;;;;;756713;183;620548;-62
2022/08/14 04:50:49;;;;;;;40.03;31.77;;;;;;;;;;763268;183;632997;-59
2022/08/14 04:53:15;;;;;;;42.77;31.50;;;;;;;;;;760400;183;619237;-61
2022/08/14 04:55:41;;;;;;;44.43;32.30;;;;;;;;;;754591;183;627708;-60
2022/08/14 04:58:07;;;;;;;45.07;33.50;;;;;;;;;;757336;183;624195;-60
2022/08/14 05:00:33;;;;;;;45.87;31.97;;;;;;;;;;749208;186;617129;-58
2022/08/14 05:03:02;;;;;;;44.60;31.50;;;;;;;;;;761060;183;633032;-59
2022/08/14 05:05:24;;;;;;;45.53;33.40;;;;;;;;;;758417;185;634901;-61
2022/08/14 05:07:50;;;;;;;42.07;31.40;;;;;;;;;;766566;183;616943;-60
2022/08/14 05:10:16;;;;;;;39.70;29.90;;;;;;;;;;761890;183;626882;-60
2022/08/14 05:12:43;;;;;;;42.47;32.23;;;;;;;;;;753902;184;630094;-59
2022/08/14 05:15:09;;;;;;;47.30;32.83;;;;;;;;;;760428;183;627093;-60
2022/08/14 05:17:34;;;;;;;45.87;32.80;;;;;;;;;;754556;183;625017;-61
2022/08/14 05:20:01;;;;;;;48.93;34.80;;;;;;;;;;755026;183;641762;-58
2022/08/14 05:22:26;;;;;;;43.60;32.40;;;;;;;;;;761721;182;633318;-60
2022/08/14 05:24:51;;;;;;;48.60;31.50;;;;;;;;;;755269;183;637066;-60
2022/08/14 05:27:19;;;;;;;47.80;33.83;;;;;;;;;;756131;183;627604;-61
2022/08/14 05:29:43;;;;;;;44.80;32.43;;;;;;;;;;756403;183;645083;-61
2022/08/14 05:32:09;;;;;;;45.23;31.97;;;;;;;;;;761652;183;623672;-61
2022/08/14 05:34:35;;;;;;;43.90;34.40;;;;;;;;;;761963;183;630946;-58
2022/08/14 05:37:01;;;;;;;49.23;33.80;;;;;;;;;;753684;183;638147;-61
2022/08/14 05:39:26;;;;;;;45.17;33.30;;;;;;;;;;759757;184;625804;-61
2022/08/14 05:41:52;;;;;;;51.93;36.33;;;;;;;;;;754160;183;639057;-61
2022/08/14 05:44:19;;;;;;;55.73;35.60;;;;;;;;;;754982;183;618911;-58
2022/08/14 05:46:44;;;;;;;49.33;34.17;;;;;;;;;;759862;183;630497;-61
2022/08/14 05:49:10;;;;;;;53.63;36.20;;;;;;;;;;755414;183;628143;-59
2022/08/14 05:51:36;;;;;;;55.50;36.00;;;;;;;;;;755110;183;634785;-59
2022/08/14 05:54:02;;;;;;;59.47;37.43;;;;;;;;;;754095;183;636206;-59
2022/08/14 05:56:28;;;;;;;60.50;39.30;;;;;;;;;;759420;183;619054;-58
2022/08/14 05:58:53;;;;;;;58.50;39.50;;;;;;;;;;756706;184;617731;-59
2022/08/14 06:01:19;;;;;;;54.80;36.42;;;;;;;;;;756287;183;628885;-61
2022/08/14 06:03:45;;;;;;;68.30;38.80;;;;;;;;;;758198;183;641933;-61
2022/08/14 06:06:11;;;;;;;57.80;37.63;;;;;;;;;;754984;183;631890;-58
2022/08/14 06:08:37;;;;;;;59.70;37.33;;;;;;;;;;755373;183;627699;-58
2022/08/14 06:11:03;;;;;;;57.20;39.03;;;;;;;;;;759121;183;616900;-61
2022/08/14 06:13:29;;;;;;;54.60;40.03;;;;;;;;;;754001;183;615136;-61
2022/08/14 06:15:54;;;;;;;63.97;37.67;;;;;;;;;;753594;183;628049;-59
2022/08/14 06:18:20;;;;;;;55.27;38.53;;;;;;;;;;743386;188;630552;-61
2022/08/14 06:20:46;;;;;;;50.63;35.83;;;;;;;;;;758437;183;624120;-59
2022/08/14 06:23:12;;;;;;;50.03;35.43;;;;;;;;;;772529;176;634524;-59
2022/08/14 06:25:38;;;;;;;52.17;38.17;;;;;;;;;;766103;183;623299;-61
2022/08/14 06:28:04;;;;;;;47.03;36.17;;;;;;;;;;769669;183;617612;-61
2022/08/14 06:30:30;;;;;;;49.53;35.90;;;;;;;;;;756849;183;624401;-61
2022/08/14 06:32:55;;;;;;;49.20;36.83;;;;;;;;;;754027;186;626172;-59
2022/08/14 06:35:22;;;;;;;50.23;37.10;;;;;;;;;;759365;184;626029;-61
2022/08/14 06:37:48;;;;;;;51.70;35.40;;;;;;;;;;754728;185;618134;-61
2022/08/14 06:40:14;;;;;;;50.57;35.80;;;;;;;;;;755651;185;661219;-58
2022/08/14 06:42:39;;;;;;;49.70;33.30;;;;;;;;;;754689;184;625440;-59
2022/08/14 06:45:05;;;;;;;52.07;35.30;;;;;;;;;;753189;186;625666;-59
2022/08/14 06:47:32;;;;;;;52.60;33.47;;;;;;;;;;754909;183;614671;-58
2022/08/14 06:49:58;;;;;;;52.43;33.60;;;;;;;;;;757004;183;626884;-58
2022/08/14 06:52:24;;;;;;;56.77;32.63;;;;;;;;;;759810;185;629086;-61
2022/08/14 06:54:50;;;;;;;51.07;34.77;;;;;;;;;;754809;183;623161;-59
2022/08/14 06:57:15;;;;;;;47.07;34.10;;;;;;;;;;756529;183;619048;-59
2022/08/14 06:59:41;;;;;;;49.43;31.17;;;;;;;;;;760064;183;633577;-59
2022/08/14 07:07:10;;;;;;;47.07;33.47;;;;;;;;;;756671;185;628209;-59
2022/08/14 07:09:36;;;;;;;42.53;31.60;;;;;;;;;;758487;185;614459;-58
2022/08/14 07:12:02;;;;;;;46.90;32.73;;;;;;;;;;755463;184;629620;-59
2022/08/14 07:14:28;;;;;;;40.83;30.20;;;;;;;;;;752089;184;624884;-58
2022/08/14 07:16:54;;;;;;;42.93;29.27;;;;;;;;;;766308;184;627542;-62
2022/08/14 07:19:19;;;;;;;39.27;30.00;;;;;;;;;;756179;183;624102;-59
2022/08/14 07:21:45;;;;;;;37.37;30.33;;;;;;;;;;754552;183;629155;-62
2022/08/14 07:24:11;;;;;;;43.43;29.13;;;;;;;;;;757111;183;644597;-59
2022/08/14 07:26:37;;;;;;;47.13;32.03;;;;;;;;;;764873;183;616946;-62
2022/08/14 07:29:03;;;;;;;41.23;31.73;;;;;;;;;;761424;183;627326;-64
2022/08/14 07:31:29;;;;;;;43.77;30.33;;;;;;;;;;755457;183;637047;-62
2022/08/14 07:33:55;;;;;;;40.10;31.53;;;;;;;;;;759973;183;627054;-59
2022/08/14 07:36:20;;;;;;;43.97;29.27;;;;;;;;;;755280;184;633706;-62
2022/08/14 07:38:46;;;;;;;37.20;28.73;;;;;;;;;;746425;187;630014;-62
2022/08/14 07:41:12;;;;;;;37.13;27.60;;;;;;;;;;760676;184;623438;-58
2022/08/14 07:43:39;;;;;;;42.40;30.40;;;;;;;;;;756991;183;619150;-63
2022/08/14 07:46:05;;;;;;;42.63;32.30;;;;;;;;;;756200;183;629713;-59
2022/08/14 07:48:31;;;;;;;40.40;27.70;;;;;;;;;;756339;184;631067;-59
2022/08/14 07:50:57;;;;;;;33.87;27.07;;;;;;;;;;759602;185;627456;-62
2022/08/14 07:53:22;;;;;;;44.50;28.50;;;;;;;;;;753620;184;628026;-59
2022/08/14 07:55:48;;;;;;;39.70;29.60;;;;;;;;;;754600;184;632786;-62
2022/08/14 07:58:14;;;;;;;36.33;27.00;;;;;;;;;;762412;183;623084;-59
2022/08/14 08:00:41;;;;;;;39.20;28.03;;;;;;;;;;756611;185;606754;-63
2022/08/14 08:03:08;;;;;;;35.23;25.47;;;;;;;;;;757539;182;628105;-62
2022/08/14 08:05:32;;;;;;;38.57;26.80;;;;;;;;;;757783;184;633327;-59
2022/08/14 08:07:58;;;;;;;31.97;25.60;;;;;;;;;;754346;185;626685;-60
2022/08/14 08:12:55;;;;;;;30.20;24.50;;;;;;;;;;756428;183;628961;-59
2022/08/14 08:15:21;;;;;;;30.23;24.07;;;;;;;;;;761413;183;624263;-59
2022/08/14 08:17:47;;;;;;;25.73;22.60;;;;;;;;;;752234;183;625127;-59
2022/08/14 08:20:14;;;;;;;30.77;23.20;;;;;;;;;;754116;183;634970;-59
2022/08/14 08:22:41;;;;;;;30.20;23.77;;;;;;;;;;758624;184;637575;-59
2022/08/14 08:25:07;;;;;;;30.47;23.73;;;;;;;;;;758931;183;625446;-59
2022/08/14 08:27:32;;;;;;;28.57;23.67;;;;;;;;;;757390;183;617995;-61
2022/08/14 08:30:01;;;;;;;31.83;24.33;;;;;;;;;;755838;183;617052;-62
2022/08/14 08:32:27;;;;;;;31.17;23.50;;;;;;;;;;758621;183;623631;-59
2022/08/14 08:34:53;;;;;;;30.37;24.77;;;;;;;;;;754099;184;628910;-59
2022/08/14 08:37:19;;;;;;;32.30;25.37;;;;;;;;;;756619;183;628578;-62
2022/08/14 08:39:45;;;;;;;31.03;24.60;;;;;;;;;;758401;185;616963;-63
2022/08/14 08:42:11;;;;;;;33.10;23.80;;;;;;;;;;754745;185;629577;-62
2022/08/14 08:44:37;;;;;;;35.03;24.50;;;;;;;;;;754798;183;637457;-62
2022/08/14 08:47:04;;;;;;;32.37;23.90;;;;;;;;;;759530;183;615597;-60
2022/08/14 08:49:34;;;;;;;33.87;25.23;;;;;;;;;;753452;187;623738;-62
2022/08/14 08:52:03;;;;;;;29.30;22.47;;;;;;;;;;765954;177;618843;-60
2022/08/14 08:54:26;;;;;;;34.33;24.40;;;;;;;;;;759478;183;682046;-59
2022/08/14 08:56:52;;;;;;;29.47;23.17;;;;;;;;;;758894;185;629981;-59
2022/08/14 08:59:20;;;;;;;36.23;24.93;;;;;;;;;;756647;183;635083;-61
2022/08/14 09:01:50;;;;;;;35.13;25.40;;;;;;;;;;755432;183;633640;-59
2022/08/14 09:04:16;;;;;;;38.00;25.30;;;;;;;;;;755266;181;628309;-62
2022/08/14 09:06:42;;;;;;;35.53;25.60;;;;;;;;;;760802;184;632841;-61
2022/08/14 09:09:14;;;;;;;40.63;26.90;;;;;;;;;;760276;183;615383;-59
2022/08/14 09:11:40;;;;;;;31.37;23.50;;;;;;;;;;757293;183;634469;-61
2022/08/14 09:14:05;;;;;;;39.30;27.47;;;;;;;;;;757430;183;625332;-59
2022/08/14 09:16:31;;;;;;;35.20;25.87;;;;;;;;;;761280;183;627728;-58
2022/08/14 09:18:57;;;;;;;35.47;25.67;;;;;;;;;;762691;183;613261;-59
2022/08/14 09:21:23;;;;;;;37.17;27.77;;;;;;;;;;751594;185;627022;-62
2022/08/14 09:23:49;;;;;;;38.67;26.43;;;;;;;;;;760065;184;620425;-59
2022/08/14 09:26:15;;;;;;;39.93;26.23;;;;;;;;;;754287;183;630742;-61
2022/08/14 09:28:40;;;;;;;40.43;26.87;;;;;;;;;;755840;184;635961;-62
2022/08/14 09:31:06;;;;;;;46.87;30.93;;;;;;;;;;760954;183;621499;-62
2022/08/14 09:33:52;;;;;;;46.80;29.47;;;;;;;;;;759292;183;616846;-63
2022/08/14 09:36:20;;;;;;;41.40;26.50;;;;;;;;;;746119;188;619206;-59
2022/08/14 09:38:45;;;;;;;38.00;24.53;;;;;;;;;;758269;184;620230;-63
2022/08/14 09:41:27;;;;;;;34.20;22.80;;;;;;;;;;755171;183;617319;-60
2022/08/14 09:43:59;;;;;;;41.77;23.13;;;;;;;;;;751376;184;631721;-62
2022/08/14 09:46:26;;;;;;;37.63;24.20;;;;;;;;;;763887;183;625615;-59
2022/08/14 09:48:56;;;;;;;30.37;20.30;;;;;;;;;;752662;184;622980;-59
2022/08/14 09:51:23;;;;;;;37.07;23.30;;;;;;;;;;754401;184;626786;-62
2022/08/14 09:53:48;;;;;;;39.23;24.00;;;;;;;;;;755224;183;619170;-57
2022/08/14 09:56:14;;;;;;;31.80;21.97;;;;;;;;;;756254;183;619027;-61
2022/08/14 09:58:40;;;;;;;35.20;24.70;;;;;;;;;;754911;184;617326;-61
2022/08/14 10:01:08;;;;;;;34.13;22.17;;;;;;;;;;753371;183;629241;-58
2022/08/14 10:03:34;;;;;;;36.80;24.93;;;;;;;;;;763484;182;632907;-59
2022/08/14 10:06:06;;;;;;;30.53;21.40;;;;;;;;;;759218;183;639731;-58
2022/08/14 10:08:31;;;;;;;31.93;21.17;;;;;;;;;;760686;183;633729;-61
2022/08/14 10:10:57;;;;;;;25.30;18.40;;;;;;;;;;757205;183;634292;-61
2022/08/14 10:13:23;;;;;;;33.90;22.10;;;;;;;;;;759514;183;631545;-59
2022/08/14 10:15:48;;;;;;;24.70;17.80;;;;;;;;;;758018;183;625190;-59
2022/08/14 10:18:14;;;;;;;25.83;19.20;;;;;;;;;;755309;183;628992;-58
2022/08/14 10:20:41;;;;;;;25.53;19.80;;;;;;;;;;760542;183;627930;-61
2022/08/14 10:23:09;;;;;;;25.10;19.73;;;;;;;;;;753686;184;637268;-58
2022/08/14 10:25:38;;;;;;;24.47;18.67;;;;;;;;;;761584;183;618534;-59
2022/08/14 10:28:04;;;;;;;21.33;18.17;;;;;;;;;;753310;183;635336;-61
2022/08/14 10:30:30;;;;;;;22.40;17.80;;;;;;;;;;765509;183;633617;-60
2022/08/14 10:32:56;;;;;;;25.50;17.33;;;;;;;;;;755978;183;640071;-58
2022/08/14 10:35:22;;;;;;;18.97;16.90;;;;;;;;;;757648;183;633242;-61
2022/08/14 10:37:48;;;;;;;21.13;15.40;;;;;;;;;;759934;183;693616;-59
2022/08/14 10:40:13;;;;;;;17.67;15.70;;;;;;;;;;753563;183;618229;-59
2022/08/14 10:42:39;;;;;;;23.57;17.00;;;;;;;;;;756503;183;639861;-59
2022/08/14 10:45:11;;;;;;;18.30;15.67;;;;;;;;;;761781;183;633073;-61
2022/08/14 10:47:38;;;;;;;23.23;16.63;;;;;;;;;;764182;183;620322;-60
2022/08/14 10:50:03;;;;;;;25.90;17.40;;;;;;;;;;754734;183;620850;-58
2022/08/14 10:52:30;;;;;;;31.20;17.33;;;;;;;;;;757515;183;633481;-59
2022/08/14 10:54:54;;;;;;;26.57;18.43;;;;;;;;;;760689;183;647846;-59
2022/08/14 10:57:20;;;;;;;21.27;17.00;;;;;;;;;;753170;185;632425;-60
2022/08/14 10:59:46;;;;;;;22.67;16.73;;;;;;;;;;753642;184;618374;-58
2022/08/14 11:02:16;;;;;;;18.43;15.30;;;;;;;;;;759964;183;618354;-59
2022/08/14 11:04:41;;;;;;;20.93;14.57;;;;;;;;;;758635;183;616927;-61
2022/08/14 11:07:07;;;;;;;18.57;14.93;;;;;;;;;;752860;184;625831;-59
2022/08/14 11:09:33;;;;;;;20.20;14.90;;;;;;;;;;757255;183;617930;-59
2022/08/14 11:12:02;;;;;;;19.47;13.50;;;;;;;;;;765990;183;638316;-61
2022/08/14 11:14:25;;;;;;;19.60;15.37;;;;;;;;;;761394;183;632681;-61
2022/08/14 11:16:51;;;;;;;19.77;15.90;;;;;;;;;;757751;183;621925;-59
2022/08/14 11:19:17;;;;;;;19.00;14.50;;;;;;;;;;760152;183;620617;-60
2022/08/14 11:21:43;;;;;;;18.30;14.13;;;;;;;;;;755843;183;618645;-61
2022/08/14 11:24:10;;;;;;;19.70;15.17;;;;;;;;;;756413;183;640601;-60
2022/08/14 11:26:37;;;;;;;18.85;14.45;;;;;;;;;;758732;183;633581;-59
2022/08/14 11:29:01;;;;;;;19.47;15.80;;;;;;;;;;767318;179;624788;-58
2022/08/14 11:31:30;;;;;;;19.70;15.70;;;;;;;;;;770162;179;637454;-61
2022/08/14 11:33:56;;;;;;;19.00;15.03;;;;;;;;;;762287;183;626167;-59
2022/08/14 11:36:21;;;;;;;17.43;13.70;;;;;;;;;;758651;183;630733;-60
2022/08/14 11:38:46;;;;;;;15.77;14.00;;;;;;;;;;754539;183;628296;-59
2022/08/14 11:41:12;;;;;;;19.40;14.23;;;;;;;;;;754706;183;635901;-59
2022/08/14 11:43:39;;;;;;;18.37;15.70;;;;;;;;;;758320;183;633443;-61
2022/08/14 11:46:03;;;;;;;16.10;13.90;;;;;;;;;;758427;183;616187;-60
2022/08/14 11:48:29;;;;;;;20.70;14.03;;;;;;;;;;756077;183;669704;-59
2022/08/14 11:50:55;;;;;;;19.53;15.20;;;;;;;;;;753034;184;662290;-58
2022/08/14 11:53:22;;;;;;;20.87;14.57;;;;;;;;;;759278;181;650205;-61
2022/08/14 11:55:49;;;;;;;22.97;15.37;;;;;;;;;;755689;183;627325;-57
2022/08/14 11:58:14;;;;;;;24.50;15.67;;;;;;;;;;754028;183;637782;-59
2022/08/14 12:00:45;;;;;;;19.80;14.60;;;;;;;;;;759169;183;625635;-60
2022/08/14 12:03:11;;;;;;;19.53;15.43;;;;;;;;;;755098;183;637939;-59
2022/08/14 12:05:38;;;;;;;19.67;14.77;;;;;;;;;;753120;183;637255;-59
2022/08/14 12:08:06;;;;;;;20.50;15.43;;;;;;;;;;756144;183;640277;-58
2022/08/14 12:10:29;;;;;;;21.93;15.80;;;;;;;;;;747495;188;617109;-61
2022/08/14 12:12:55;;;;;;;20.90;16.63;;;;;;;;;;745610;187;609097;-59
2022/08/14 12:15:26;;;;;;;18.03;15.83;;;;;;;;;;746196;187;613408;-58
2022/08/14 12:17:52;;;;;;;20.70;15.80;;;;;;;;;;741488;188;608264;-57
2022/08/14 12:20:19;;;;;;;18.40;16.33;;;;;;;;;;745005;187;639038;-57
2022/08/14 12:22:45;;;;;;;21.50;17.77;;;;;;;;;;745339;181;636091;-59
2022/08/14 12:25:11;;;;;;;20.33;17.97;;;;;;;;;;755220;184;628752;-59
2022/08/14 12:27:38;;;;;;;22.50;16.60;;;;;;;;;;747293;187;616601;-58
2022/08/14 12:30:05;;;;;;;19.87;15.43;;;;;;;;;;753222;183;621627;-57
2022/08/14 12:32:36;;;;;;;27.00;16.73;;;;;;;;;;757423;183;620353;-60
2022/08/14 12:35:03;;;;;;;18.17;15.73;;;;;;;;;;760602;183;613383;-59
2022/08/14 12:37:29;;;;;;;21.57;15.50;;;;;;;;;;758520;183;627676;-60
2022/08/14 12:39:54;;;;;;;22.10;15.90;;;;;;;;;;757028;183;658922;-65
2022/08/14 12:42:20;;;;;;;21.40;15.43;;;;;;;;;;757429;183;634173;-63
2022/08/14 12:44:47;;;;;;;21.60;17.07;;;;;;;;;;766006;183;621027;-59
2022/08/14 12:47:15;;;;;;;18.60;15.20;;;;;;;;;;752483;185;629068;-59
2022/08/14 12:49:38;;;;;;;20.30;15.73;;;;;;;;;;753846;183;626069;-64
2022/08/14 12:52:06;;;;;;;19.77;15.63;;;;;;;;;;759739;184;634134;-60
2022/08/14 12:54:30;;;;;;;25.77;16.20;;;;;;;;;;754759;185;630691;-65
2022/08/14 12:57:01;;;;;;;19.60;16.33;;;;;;;;;;757673;183;633665;-59
2022/08/14 12:59:28;;;;;;;18.80;16.37;;;;;;;;;;756036;183;632263;-59
2022/08/14 13:01:54;;;;;;;20.53;16.50;;;;;;;;;;757454;184;629125;-60
2022/08/14 13:04:20;;;;;;;21.73;15.80;;;;;;;;;;755598;184;621081;-64
2022/08/14 13:06:46;;;;;;;23.30;15.37;;;;;;;;;;757154;183;629356;-59
2022/08/14 13:09:11;;;;;;;18.23;14.63;;;;;;;;;;760147;183;630770;-62
2022/08/14 13:11:39;;;;;;;18.37;12.80;;;;;;;;;;754474;183;618927;-60
2022/08/14 13:14:04;;;;;;;18.80;15.43;;;;;;;;;;754185;183;630862;-60
2022/08/14 13:16:30;;;;;;;21.53;13.90;;;;;;;;;;760177;183;617429;-59
2022/08/14 13:18:57;;;;;;;17.03;14.37;;;;;;;;;;754577;183;637004;-60
2022/08/14 13:21:22;;;;;;;17.30;15.03;;;;;;;;;;753107;183;644759;-60
2022/08/14 13:23:48;;;;;;;20.90;16.40;;;;;;;;;;757359;183;614751;-64
2022/08/14 13:26:13;;;;;;;16.57;14.17;;;;;;;;;;759006;183;615257;-60
2022/08/14 13:28:41;;;;;;;17.10;14.53;;;;;;;;;;755118;182;627788;-59
2022/08/14 13:31:05;;;;;;;18.83;14.40;;;;;;;;;;755374;183;615377;-63
2022/08/14 13:33:32;;;;;;;21.83;14.73;;;;;;;;;;758701;183;623029;-60
2022/08/14 13:35:57;;;;;;;19.00;14.30;;;;;;;;;;760153;183;633525;-59
2022/08/14 13:38:24;;;;;;;21.20;14.30;;;;;;;;;;755429;183;646352;-60
2022/08/14 13:40:54;;;;;;;15.07;13.03;;;;;;;;;;760873;185;631418;-59
2022/08/14 13:43:14;;;;;;;18.50;14.57;;;;;;;;;;758856;185;628664;-64
2022/08/14 13:45:40;;;;;;;20.23;13.23;;;;;;;;;;756994;185;619018;-61
2022/08/14 13:48:06;;;;;;;15.87;13.60;;;;;;;;;;756291;183;633386;-64
2022/08/14 13:50:32;;;;;;;15.07;12.73;;;;;;;;;;770252;181;632721;-60
2022/08/14 13:52:59;;;;;;;16.20;13.13;;;;;;;;;;762945;183;636126;-66
2022/08/14 13:55:24;;;;;;;15.60;12.90;;;;;;;;;;757046;185;636615;-63
2022/08/14 13:57:50;;;;;;;16.73;13.47;;;;;;;;;;759816;183;633967;-64
2022/08/14 14:00:17;;;;;;;22.10;13.53;;;;;;;;;;755040;185;619384;-60
2022/08/14 14:02:42;;;;;;;15.10;12.17;;;;;;;;;;755881;185;627143;-60
2022/08/14 14:05:08;;;;;;;14.80;11.60;;;;;;;;;;759551;183;621525;-60
2022/08/14 14:07:34;;;;;;;15.17;12.30;;;;;;;;;;756655;186;625106;-60
2022/08/14 14:10:00;;;;;;;17.40;14.40;;;;;;;;;;763266;183;627156;-59
2022/08/14 14:12:26;;;;;;;20.27;14.00;;;;;;;;;;755845;183;618644;-61
2022/08/14 14:14:52;;;;;;;19.20;14.53;;;;;;;;;;760843;183;634213;-66